createdAt,value
2022-09-10T00:01:49.261Z,5.65
2022-09-10T00:05:42.267Z,5.23
2022-09-10T00:09:20.489Z,5.10
2022-09-10T00:13:12.209Z,5.57
2022-09-10T00:16:57.211Z,5.35
2022-09-10T00:20:56.296Z,5.25
2022-09-10T00:24:34.472Z,5.87
2022-09-10T00:28:26.219Z,6.13
2022-09-10T00:32:11.215Z,5.43
2022-09-10T00:36:04.211Z,5.07
2022-09-10T00:39:42.574Z,4.50
2022-09-10T00:43:35.259Z,4.27
2022-09-10T00:47:46.225Z,2.70
2022-09-10T00:51:41.221Z,3.00
2022-09-10T00:55:21.142Z,2.72
2022-09-10T00:59:14.216Z,3.00
2022-09-10T01:02:59.247Z,2.80
2022-09-10T01:06:53.243Z,2.83
2022-09-10T01:10:40.732Z,2.65
2022-09-10T01:14:54.314Z,2.97
2022-09-10T01:19:00.260Z,2.55
2022-09-10T01:23:32.274Z,2.40
2022-09-10T01:27:49.295Z,3.03
2022-09-10T01:31:34.328Z,2.97
2022-09-10T01:35:34.238Z,2.88
2022-09-10T01:39:20.249Z,3.25
2022-09-10T01:43:16.261Z,3.00
2022-09-10T01:47:11.278Z,3.20
2022-09-10T01:51:21.235Z,2.97
2022-09-10T01:55:43.252Z,3.22
2022-09-10T01:59:57.264Z,3.53
2022-09-10T02:03:36.315Z,3.43
2022-09-10T02:07:31.255Z,3.30
2022-09-10T02:11:18.310Z,3.30
2022-09-10T02:15:11.258Z,3.08
2022-09-10T02:18:50.347Z,2.95
2022-09-10T02:22:43.270Z,2.77
2022-09-10T02:26:29.286Z,3.23
2022-09-10T02:30:21.280Z,2.97
2022-09-10T02:33:59.353Z,3.05
2022-09-10T02:37:51.301Z,2.60
2022-09-10T02:41:40.253Z,3.17
2022-09-10T02:45:32.311Z,2.40
2022-09-10T02:49:10.347Z,2.65
2022-09-10T02:53:02.292Z,2.97
2022-09-10T02:56:56.319Z,2.80
2022-09-10T03:00:41.594Z,2.50
2022-09-10T03:04:26.494Z,2.40
2022-09-10T03:08:13.841Z,2.40
2022-09-10T03:12:06.288Z,2.58
2022-09-10T03:15:51.274Z,2.75
2022-09-10T03:19:36.458Z,2.87
2022-09-10T03:23:28.526Z,3.37
2022-09-10T03:27:13.316Z,2.60
2022-09-10T03:31:06.316Z,2.55
2022-09-10T03:34:51.287Z,3.03
2022-09-10T03:38:50.328Z,3.23
2022-09-10T03:42:44.347Z,3.53
2022-09-10T03:46:29.326Z,2.63
2022-09-10T03:50:28.316Z,2.55
2022-09-10T03:54:20.295Z,2.05
2022-09-10T03:58:05.328Z,1.60
2022-09-10T04:01:57.413Z,1.80
2022-09-10T04:05:43.354Z,1.85
2022-09-10T04:09:35.363Z,1.50
2022-09-10T04:13:13.412Z,2.10
2022-09-10T04:17:05.336Z,1.60
2022-09-10T04:21:00.348Z,1.67
2022-09-10T04:24:38.742Z,1.90
2022-09-10T04:28:30.408Z,1.67
2022-09-10T04:32:15.324Z,2.40
2022-09-10T04:36:03.192Z,2.70
2022-09-10T04:39:50.322Z,2.58
2022-09-10T04:43:42.383Z,2.83
2022-09-10T04:47:27.345Z,2.58
2022-09-10T04:51:17.781Z,2.45
2022-09-10T04:55:03.363Z,2.30
2022-09-10T04:58:55.370Z,2.20
2022-09-10T05:02:47.335Z,2.17
2022-09-10T05:06:25.506Z,2.13
2022-09-10T05:10:17.356Z,1.77
2022-09-10T05:13:55.434Z,2.07
2022-09-10T05:17:47.407Z,2.38
2022-09-10T05:21:26.241Z,2.78
2022-09-10T05:25:18.425Z,2.80
2022-09-10T05:29:03.387Z,3.10
2022-09-10T05:33:02.396Z,2.27
2022-09-10T05:36:55.419Z,3.05
2022-09-10T05:40:40.388Z,2.65
2022-09-10T05:44:32.421Z,2.78
2022-09-10T05:48:17.373Z,2.83
2022-09-10T05:52:16.377Z,2.80
2022-09-10T05:56:08.386Z,2.70
2022-09-10T05:59:53.411Z,2.80
2022-09-10T06:03:46.368Z,2.90
2022-09-10T06:07:25.138Z,2.70
2022-09-10T06:11:17.365Z,2.63
2022-09-10T06:15:02.478Z,2.38
2022-09-10T06:18:54.438Z,2.47
2022-09-10T06:22:39.390Z,2.67
2022-09-10T06:26:32.403Z,2.33
2022-09-10T06:30:18.401Z,2.70
2022-09-10T06:34:18.407Z,2.40
2022-09-10T06:38:10.404Z,2.42
2022-09-10T06:41:56.413Z,2.10
2022-09-10T06:45:48.480Z,1.42
2022-09-10T06:49:29.988Z,1.00
2022-09-10T06:53:21.488Z,1.30
2022-09-10T06:57:07.394Z,0.70
2022-09-10T07:01:06.446Z,1.00
2022-09-10T07:04:58.412Z,1.15
2022-09-10T07:08:43.400Z,1.17
2022-09-10T07:12:35.420Z,1.77
2022-09-10T07:16:21.407Z,2.30
2022-09-10T07:20:14.418Z,1.02
2022-09-10T07:23:59.439Z,1.00
2022-09-10T07:27:52.440Z,0.83
2022-09-10T07:31:33.980Z,0.82
2022-09-10T07:35:25.414Z,1.40
2022-09-10T07:39:11.409Z,1.17
2022-09-10T07:43:03.521Z,1.40
2022-09-10T07:46:48.440Z,1.03
2022-09-10T07:50:47.478Z,1.27
2022-09-10T07:54:39.408Z,1.70
2022-09-10T07:58:31.469Z,1.20
2022-09-10T08:02:22.498Z,1.58
2022-09-10T08:06:09.112Z,1.13
2022-09-10T08:09:55.438Z,1.15
2022-09-10T08:13:51.437Z,0.90
2022-09-10T08:17:37.472Z,1.00
2022-09-10T08:21:36.470Z,1.10
2022-09-10T08:25:14.774Z,1.00
2022-09-10T08:29:09.469Z,0.95
2022-09-10T08:32:54.459Z,1.42
2022-09-10T08:36:46.505Z,0.98
2022-09-10T08:40:24.749Z,0.77
2022-09-10T08:44:27.471Z,0.57
2022-09-10T08:48:24.500Z,0.90
2022-09-10T08:52:21.365Z,1.02
2022-09-10T08:56:21.477Z,0.80
2022-09-10T09:00:09.449Z,1.10
2022-09-10T09:04:06.338Z,1.00
2022-09-10T09:07:51.488Z,0.93
2022-09-10T09:11:59.528Z,1.00
2022-09-10T09:15:58.557Z,0.82
2022-09-10T09:20:08.455Z,0.80
2022-09-10T09:24:13.650Z,0.50
2022-09-10T09:28:05.480Z,0.57
2022-09-10T09:31:54.457Z,0.85
2022-09-10T09:36:00.517Z,0.68
2022-09-10T09:39:53.548Z,0.80
2022-09-10T09:44:02.498Z,0.70
2022-09-10T09:47:41.153Z,1.17
2022-09-10T09:51:37.487Z,0.68
2022-09-10T09:55:43.495Z,1.20
2022-09-10T09:59:41.475Z,0.82
2022-09-10T10:03:24.578Z,0.80
2022-09-10T10:07:18.510Z,1.00
2022-09-10T10:11:05.507Z,1.02
2022-09-10T10:15:04.516Z,0.88
2022-09-10T10:18:56.481Z,0.98
2022-09-10T10:22:43.511Z,0.80
2022-09-10T10:26:43.583Z,0.70
2022-09-10T10:30:44.557Z,0.80
2022-09-10T10:35:00.634Z,0.60
2022-09-10T10:38:50.527Z,0.80
2022-09-10T10:42:49.667Z,1.10
2022-09-10T10:46:30.818Z,1.05
2022-09-10T10:50:22.532Z,0.70
2022-09-10T10:54:27.514Z,1.10
2022-09-10T10:58:28.612Z,0.85
2022-09-10T11:03:06.514Z,0.90
2022-09-10T11:07:14.565Z,0.65
2022-09-10T11:11:12.528Z,1.17
2022-09-10T11:15:04.525Z,1.00
2022-09-10T11:19:05.561Z,0.82
2022-09-10T11:22:51.643Z,0.73
2022-09-10T11:27:01.541Z,0.60
2022-09-10T11:30:48.578Z,0.82
2022-09-10T11:35:05.544Z,0.50
2022-09-10T11:39:24.661Z,0.70
2022-09-10T11:43:33.540Z,0.60
2022-09-10T11:47:40.536Z,0.80
2022-09-10T11:51:37.570Z,1.00
2022-09-10T11:55:23.558Z,0.60
2022-09-10T11:59:20.637Z,0.60
2022-09-10T12:03:21.610Z,0.50
2022-09-10T12:07:25.551Z,0.80
2022-09-10T12:11:34.607Z,0.90
2022-09-10T12:15:25.655Z,0.70
2022-09-10T12:19:35.580Z,1.02
2022-09-10T12:23:53.579Z,0.70
2022-09-10T12:27:57.637Z,0.80
2022-09-10T12:32:33.579Z,0.90
2022-09-10T12:36:23.591Z,0.60
2022-09-10T12:40:38.576Z,0.88
2022-09-10T12:44:42.575Z,0.80
2022-09-10T12:48:29.858Z,0.90
2022-09-10T12:52:20.662Z,0.98
2022-09-10T12:56:17.619Z,0.98
2022-09-10T13:00:24.595Z,1.15
2022-09-10T13:04:10.678Z,0.90
2022-09-10T13:08:05.658Z,1.20
2022-09-10T13:12:01.613Z,1.10
2022-09-10T13:15:46.660Z,1.10
2022-09-10T13:19:31.711Z,0.90
2022-09-10T13:23:16.601Z,1.10
2022-09-10T13:27:17.600Z,1.10
2022-09-10T13:31:17.698Z,1.08
2022-09-10T13:35:27.030Z,1.25
2022-09-10T13:39:36.615Z,1.48
2022-09-10T13:43:43.626Z,1.40
2022-09-10T13:47:53.640Z,1.67
2022-09-10T13:51:47.680Z,1.23
2022-09-10T13:55:46.618Z,1.13
2022-09-10T13:59:40.631Z,1.52
2022-09-10T14:03:34.653Z,2.30
2022-09-10T14:07:34.686Z,2.17
2022-09-10T14:11:18.768Z,1.52
2022-09-10T14:15:12.675Z,0.95
2022-09-10T14:19:04.663Z,2.47
2022-09-10T14:23:13.658Z,1.80
2022-09-10T14:27:11.779Z,1.33
2022-09-10T14:31:27.739Z,1.48
2022-09-10T14:35:51.635Z,1.20
2022-09-10T14:39:50.805Z,1.75
2022-09-10T14:43:45.738Z,1.10
2022-09-10T14:48:04.685Z,1.45
2022-09-10T14:51:56.668Z,1.20
2022-09-10T14:55:44.645Z,1.13
2022-09-10T14:59:40.744Z,1.60
2022-09-10T15:03:25.756Z,1.67
2022-09-10T15:07:10.674Z,1.67
2022-09-10T15:11:02.648Z,1.30
2022-09-10T15:14:43.961Z,1.55
2022-09-10T15:18:35.676Z,1.00
2022-09-10T15:22:27.690Z,1.57
2022-09-10T15:26:20.705Z,1.67
2022-09-10T15:30:05.742Z,1.08
2022-09-10T15:33:50.775Z,1.10
2022-09-10T15:37:35.663Z,0.83
2022-09-10T15:41:27.684Z,0.75
2022-09-10T15:45:19.736Z,1.05
2022-09-10T15:48:59.499Z,1.00
2022-09-10T15:52:51.779Z,0.70
2022-09-10T15:56:37.723Z,0.90
2022-09-10T16:00:29.778Z,0.50
2022-09-10T16:04:21.791Z,0.85
2022-09-10T16:08:00.054Z,0.57
2022-09-10T16:11:53.703Z,0.97
2022-09-10T16:15:32.078Z,0.60
2022-09-10T16:19:25.764Z,0.63
2022-09-10T16:23:10.693Z,0.70
2022-09-10T16:27:02.818Z,0.80
2022-09-10T16:30:41.396Z,0.70
2022-09-10T16:34:33.697Z,0.77
2022-09-10T16:38:12.006Z,1.15
2022-09-10T16:42:03.697Z,1.00
2022-09-10T16:45:56.733Z,0.85
2022-09-10T16:49:48.749Z,1.80
2022-09-10T16:53:27.052Z,3.00
2022-09-10T16:57:18.975Z,1.55
2022-09-10T17:01:05.796Z,1.70
2022-09-10T17:04:50.781Z,0.93
2022-09-10T17:08:35.723Z,1.23
2022-09-10T17:12:27.754Z,1.20
2022-09-10T17:16:36.764Z,1.10
2022-09-10T17:20:28.749Z,1.63
2022-09-10T17:24:27.748Z,1.05
2022-09-10T17:28:19.726Z,1.00
2022-09-10T17:32:05.765Z,1.30
2022-09-10T17:36:06.754Z,0.98
2022-09-10T17:39:52.229Z,1.48
2022-09-10T17:43:40.951Z,1.88
2022-09-10T17:47:33.775Z,3.60
2022-09-10T17:51:21.816Z,3.87
2022-09-10T17:55:13.811Z,2.78
2022-09-10T17:59:14.831Z,2.50
2022-09-10T18:03:07.049Z,2.10
2022-09-10T18:06:52.846Z,1.23
2022-09-10T18:10:38.365Z,1.40
2022-09-10T18:14:31.769Z,2.08
2022-09-10T18:18:16.817Z,2.00
2022-09-10T18:22:08.804Z,2.17
2022-09-10T18:25:49.921Z,2.30
2022-09-10T18:29:41.847Z,3.20
2022-09-10T18:33:26.770Z,2.20
2022-09-10T18:37:19.784Z,2.42
2022-09-10T18:41:05.268Z,2.47
2022-09-10T18:44:49.833Z,2.53
2022-09-10T18:48:38.861Z,2.60
2022-09-10T18:52:30.836Z,2.47
2022-09-10T18:56:24.874Z,3.35
2022-09-10T19:00:02.957Z,2.90
2022-09-10T19:03:54.782Z,3.43
2022-09-10T19:07:39.797Z,3.05
2022-09-10T19:11:30.196Z,2.92
2022-09-10T19:15:21.799Z,3.53
2022-09-10T19:19:03.351Z,3.80
2022-09-10T19:22:54.802Z,4.03
2022-09-10T19:26:40.808Z,4.13
2022-09-10T19:30:35.783Z,3.72
2022-09-10T19:34:21.855Z,4.05
2022-09-10T19:38:34.239Z,4.30
2022-09-10T19:42:18.819Z,5.10
2022-09-10T19:46:10.904Z,4.47
2022-09-10T19:49:49.169Z,4.40
2022-09-10T19:53:40.832Z,4.43
2022-09-10T19:57:25.792Z,4.40
2022-09-10T20:01:28.887Z,4.63
2022-09-10T20:05:09.023Z,4.43
2022-09-10T20:09:01.863Z,4.22
2022-09-10T20:12:53.843Z,4.40
2022-09-10T20:16:38.856Z,4.07
2022-09-10T20:20:37.869Z,3.60
2022-09-10T20:24:30.836Z,3.60
2022-09-10T20:28:15.834Z,3.40
2022-09-10T20:32:07.885Z,3.58
2022-09-10T20:35:49.092Z,3.90
2022-09-10T20:39:40.911Z,3.90
2022-09-10T20:43:26.825Z,3.97
2022-09-10T20:47:18.831Z,3.90
2022-09-10T20:51:00.951Z,3.40
2022-09-10T20:54:52.833Z,3.50
2022-09-10T20:58:31.181Z,3.67
2022-09-10T21:02:22.895Z,3.97
2022-09-10T21:06:02.035Z,4.20
2022-09-10T21:09:53.865Z,4.18
2022-09-10T21:13:39.860Z,3.87
2022-09-10T21:17:31.862Z,4.80
2022-09-10T21:21:26.863Z,4.05
2022-09-10T21:25:18.867Z,4.45
2022-09-10T21:29:12.853Z,4.72
2022-09-10T21:32:58.015Z,4.67
2022-09-10T21:36:45.168Z,4.37
2022-09-10T21:40:37.883Z,4.65
2022-09-10T21:44:34.948Z,4.43
2022-09-10T21:48:27.927Z,4.07
2022-09-10T21:52:12.883Z,4.57
2022-09-10T21:56:12.889Z,4.90
2022-09-10T22:00:04.905Z,5.10
2022-09-10T22:03:49.891Z,5.35
2022-09-10T22:07:48.987Z,4.70
2022-09-10T22:11:48.926Z,5.43
2022-09-10T22:15:33.896Z,5.07
2022-09-10T22:19:28.935Z,4.78
2022-09-10T22:23:13.950Z,5.43
2022-09-10T22:27:12.881Z,4.82
2022-09-10T22:31:04.937Z,4.90
2022-09-10T22:34:49.898Z,4.60
2022-09-10T22:38:41.933Z,4.53
2022-09-10T22:42:33.909Z,4.65
2022-09-10T22:46:14.006Z,4.93
2022-09-10T22:50:05.899Z,4.27
2022-09-10T22:53:51.916Z,4.77
2022-09-10T22:57:44.947Z,4.50
2022-09-10T23:01:49.992Z,4.28
2022-09-10T23:05:41.884Z,4.60
2022-09-10T23:09:28.918Z,5.13
2022-09-10T23:13:20.903Z,5.20
2022-09-10T23:16:59.010Z,4.10
2022-09-10T23:20:50.948Z,5.55
2022-09-10T23:24:37.905Z,5.20
2022-09-10T23:28:42.065Z,4.67
2022-09-10T23:32:33.926Z,5.70
2022-09-10T23:36:20.068Z,5.30
2022-09-10T23:40:12.983Z,5.30
2022-09-10T23:43:57.962Z,5.30
2022-09-10T23:47:56.934Z,5.37
2022-09-10T23:51:48.930Z,5.03
2022-09-10T23:55:34.129Z,5.60
2022-09-10T23:59:26.042Z,5.25
